sensor_id;sensor_type;location;lat;lon;timestamp;temperature;humidity
45549;DHT22;31270;48.328;10.096;2023-12-04T00:00:04;-7.80;99.90
45549;DHT22;31270;48.328;10.096;2023-12-04T00:02:32;-7.80;99.90
45549;DHT22;31270;48.328;10.096;2023-12-04T00:04:57;-7.70;99.90
45549;DHT22;31270;48.328;10.096;2023-12-04T00:07:23;-7.70;99.90
45549;DHT22;31270;48.328;10.096;2023-12-04T00:09:49;-7.70;99.90
45549;DHT22;31270;48.328;10.096;2023-12-04T00:12:14;-7.80;99.90
45549;DHT22;31270;48.328;10.096;2023-12-04T00:14:40;-7.80;99.90
45549;DHT22;31270;48.328;10.096;2023-12-04T00:17:05;-7.80;99.90
45549;DHT22;31270;48.328;10.096;2023-12-04T00:19:31;-7.80;99.90
45549;DHT22;31270;48.328;10.096;2023-12-04T00:21:57;-7.80;99.90
45549;DHT22;31270;48.328;10.096;2023-12-04T00:24:22;-7.90;99.90
45549;DHT22;31270;48.328;10.096;2023-12-04T00:26:48;-7.80;99.90
45549;DHT22;31270;48.328;10.096;2023-12-04T00:29:14;-7.80;99.90
45549;DHT22;31270;48.328;10.096;2023-12-04T00:31:39;-7.80;99.90
45549;DHT22;31270;48.328;10.096;2023-12-04T00:34:05;-7.80;99.90
45549;DHT22;31270;48.328;10.096;2023-12-04T00:36:31;-7.80;99.90
45549;DHT22;31270;48.328;10.096;2023-12-04T00:38:56;-7.70;99.90
45549;DHT22;31270;48.328;10.096;2023-12-04T00:41:22;-7.70;99.90
45549;DHT22;31270;48.328;10.096;2023-12-04T00:43:48;-7.70;99.90
45549;DHT22;31270;48.328;10.096;2023-12-04T00:46:14;-7.70;99.90
45549;DHT22;31270;48.328;10.096;2023-12-04T00:48:39;-7.70;99.90
45549;DHT22;31270;48.328;10.096;2023-12-04T00:51:05;-7.90;99.90
45549;DHT22;31270;48.328;10.096;2023-12-04T00:53:31;-8.00;99.90
45549;DHT22;31270;48.328;10.096;2023-12-04T00:55:56;-8.10;99.90
45549;DHT22;31270;48.328;10.096;2023-12-04T00:58:22;-8.20;99.90
45549;DHT22;31270;48.328;10.096;2023-12-04T01:00:48;-8.20;99.90
45549;DHT22;31270;48.328;10.096;2023-12-04T01:03:14;-8.20;99.90
45549;DHT22;31270;48.328;10.096;2023-12-04T01:05:40;-8.10;99.90
45549;DHT22;31270;48.328;10.096;2023-12-04T01:08:05;-8.10;99.90
45549;DHT22;31270;48.328;10.096;2023-12-04T01:10:31;-8.20;99.90
45549;DHT22;31270;48.328;10.096;2023-12-04T01:12:56;-8.30;99.90
45549;DHT22;31270;48.328;10.096;2023-12-04T01:15:22;-8.40;99.90
45549;DHT22;31270;48.328;10.096;2023-12-04T01:17:49;-8.50;99.90
45549;DHT22;31270;48.328;10.096;2023-12-04T01:20:15;-8.60;99.90
45549;DHT22;31270;48.328;10.096;2023-12-04T01:22:40;-8.70;99.90
45549;DHT22;31270;48.328;10.096;2023-12-04T01:25:06;-8.70;99.90
45549;DHT22;31270;48.328;10.096;2023-12-04T01:27:32;-8.70;99.90
45549;DHT22;31270;48.328;10.096;2023-12-04T01:30:01;-8.60;99.90
45549;DHT22;31270;48.328;10.096;2023-12-04T01:32:27;-8.50;99.90
45549;DHT22;31270;48.328;10.096;2023-12-04T01:34:52;-8.50;99.90
45549;DHT22;31270;48.328;10.096;2023-12-04T01:37:18;-8.40;99.90
45549;DHT22;31270;48.328;10.096;2023-12-04T01:39:44;-8.40;99.90
45549;DHT22;31270;48.328;10.096;2023-12-04T01:42:09;-8.20;99.90
45549;DHT22;31270;48.328;10.096;2023-12-04T01:44:36;-8.30;99.90
45549;DHT22;31270;48.328;10.096;2023-12-04T01:47:03;-8.30;99.90
45549;DHT22;31270;48.328;10.096;2023-12-04T01:49:28;-8.30;99.90
45549;DHT22;31270;48.328;10.096;2023-12-04T01:51:55;-8.30;99.90
45549;DHT22;31270;48.328;10.096;2023-12-04T01:54:22;-8.40;99.90
45549;DHT22;31270;48.328;10.096;2023-12-04T01:56:48;-8.50;99.90
45549;DHT22;31270;48.328;10.096;2023-12-04T01:59:15;-8.70;99.90
45549;DHT22;31270;48.328;10.096;2023-12-04T02:01:42;-8.50;99.90
45549;DHT22;31270;48.328;10.096;2023-12-04T02:04:07;-8.60;99.90
45549;DHT22;31270;48.328;10.096;2023-12-04T02:06:33;-8.70;99.90
45549;DHT22;31270;48.328;10.096;2023-12-04T02:09:00;-8.90;99.90
45549;DHT22;31270;48.328;10.096;2023-12-04T02:11:26;-9.00;99.90
45549;DHT22;31270;48.328;10.096;2023-12-04T02:13:52;-9.00;99.90
45549;DHT22;31270;48.328;10.096;2023-12-04T02:16:18;-8.90;99.90
45549;DHT22;31270;48.328;10.096;2023-12-04T02:18:45;-8.80;99.90
45549;DHT22;31270;48.328;10.096;2023-12-04T02:21:11;-8.80;99.90
45549;DHT22;31270;48.328;10.096;2023-12-04T02:23:36;-8.70;99.90
45549;DHT22;31270;48.328;10.096;2023-12-04T02:26:09;-8.70;99.90
45549;DHT22;31270;48.328;10.096;2023-12-04T02:28:36;-8.50;99.90
45549;DHT22;31270;48.328;10.096;2023-12-04T02:31:04;-8.50;99.90
45549;DHT22;31270;48.328;10.096;2023-12-04T02:33:32;-8.50;99.90
45549;DHT22;31270;48.328;10.096;2023-12-04T02:35:59;-8.40;99.90
45549;DHT22;31270;48.328;10.096;2023-12-04T02:38:27;-8.50;99.90
45549;DHT22;31270;48.328;10.096;2023-12-04T02:40:52;-8.50;99.90
45549;DHT22;31270;48.328;10.096;2023-12-04T02:43:18;-8.40;99.90
45549;DHT22;31270;48.328;10.096;2023-12-04T02:45:43;-8.40;99.90
45549;DHT22;31270;48.328;10.096;2023-12-04T02:48:09;-8.50;99.90
45549;DHT22;31270;48.328;10.096;2023-12-04T02:50:35;-8.50;99.90
45549;DHT22;31270;48.328;10.096;2023-12-04T02:53:01;-8.50;99.90
45549;DHT22;31270;48.328;10.096;2023-12-04T02:55:27;-8.50;99.90
45549;DHT22;31270;48.328;10.096;2023-12-04T02:57:53;-8.50;99.90
45549;DHT22;31270;48.328;10.096;2023-12-04T03:00:18;-8.60;99.90
45549;DHT22;31270;48.328;10.096;2023-12-04T03:02:44;-8.60;99.90
45549;DHT22;31270;48.328;10.096;2023-12-04T03:05:09;-8.70;99.90
45549;DHT22;31270;48.328;10.096;2023-12-04T03:07:35;-8.60;99.90
45549;DHT22;31270;48.328;10.096;2023-12-04T03:10:01;-8.60;99.90
45549;DHT22;31270;48.328;10.096;2023-12-04T03:12:27;-8.60;99.90
45549;DHT22;31270;48.328;10.096;2023-12-04T03:14:52;-8.60;99.90
45549;DHT22;31270;48.328;10.096;2023-12-04T03:17:18;-8.60;99.90
45549;DHT22;31270;48.328;10.096;2023-12-04T03:19:43;-8.50;99.90
45549;DHT22;31270;48.328;10.096;2023-12-04T03:22:09;-8.60;99.90
45549;DHT22;31270;48.328;10.096;2023-12-04T03:24:34;-8.50;99.90
45549;DHT22;31270;48.328;10.096;2023-12-04T03:27:00;-8.70;99.90
45549;DHT22;31270;48.328;10.096;2023-12-04T03:29:26;-8.70;99.90
45549;DHT22;31270;48.328;10.096;2023-12-04T03:31:51;-8.70;99.90
45549;DHT22;31270;48.328;10.096;2023-12-04T03:34:17;-8.80;99.90
45549;DHT22;31270;48.328;10.096;2023-12-04T03:36:42;-8.80;99.90
45549;DHT22;31270;48.328;10.096;2023-12-04T03:39:08;-8.80;99.90
45549;DHT22;31270;48.328;10.096;2023-12-04T03:41:34;-8.80;99.90
45549;DHT22;31270;48.328;10.096;2023-12-04T03:43:59;-8.80;99.90
45549;DHT22;31270;48.328;10.096;2023-12-04T03:46:25;-8.80;99.90
45549;DHT22;31270;48.328;10.096;2023-12-04T03:48:51;-8.70;99.90
45549;DHT22;31270;48.328;10.096;2023-12-04T03:51:16;-8.60;99.90
45549;DHT22;31270;48.328;10.096;2023-12-04T03:53:42;-8.60;99.90
45549;DHT22;31270;48.328;10.096;2023-12-04T03:56:08;-8.60;99.90
45549;DHT22;31270;48.328;10.096;2023-12-04T03:58:35;-8.60;99.90
45549;DHT22;31270;48.328;10.096;2023-12-04T04:01:03;-8.60;99.90
45549;DHT22;31270;48.328;10.096;2023-12-04T04:03:28;-8.50;99.90
45549;DHT22;31270;48.328;10.096;2023-12-04T04:05:54;-8.70;99.90
45549;DHT22;31270;48.328;10.096;2023-12-04T04:08:19;-8.80;99.90
45549;DHT22;31270;48.328;10.096;2023-12-04T04:10:45;-8.90;99.90
45549;DHT22;31270;48.328;10.096;2023-12-04T04:13:11;-8.90;99.90
45549;DHT22;31270;48.328;10.096;2023-12-04T04:15:36;-8.90;99.90
45549;DHT22;31270;48.328;10.096;2023-12-04T04:18:02;-9.00;99.90
45549;DHT22;31270;48.328;10.096;2023-12-04T04:20:27;-8.90;99.90
45549;DHT22;31270;48.328;10.096;2023-12-04T04:22:53;-8.80;99.90
45549;DHT22;31270;48.328;10.096;2023-12-04T04:25:19;-8.80;99.90
45549;DHT22;31270;48.328;10.096;2023-12-04T04:27:47;-8.90;99.90
45549;DHT22;31270;48.328;10.096;2023-12-04T04:30:13;-9.10;99.90
45549;DHT22;31270;48.328;10.096;2023-12-04T04:32:39;-9.10;99.90
45549;DHT22;31270;48.328;10.096;2023-12-04T04:35:05;-9.10;99.90
45549;DHT22;31270;48.328;10.096;2023-12-04T04:37:30;-9.10;99.90
45549;DHT22;31270;48.328;10.096;2023-12-04T04:39:56;-9.10;99.90
45549;DHT22;31270;48.328;10.096;2023-12-04T04:42:22;-9.00;99.90
45549;DHT22;31270;48.328;10.096;2023-12-04T04:44:48;-9.10;99.90
45549;DHT22;31270;48.328;10.096;2023-12-04T04:47:13;-9.10;99.90
45549;DHT22;31270;48.328;10.096;2023-12-04T04:49:39;-9.00;99.90
45549;DHT22;31270;48.328;10.096;2023-12-04T04:52:05;-9.00;99.90
45549;DHT22;31270;48.328;10.096;2023-12-04T04:54:31;-9.00;99.90
45549;DHT22;31270;48.328;10.096;2023-12-04T04:56:58;-8.90;99.90
45549;DHT22;31270;48.328;10.096;2023-12-04T04:59:23;-8.80;99.90
45549;DHT22;31270;48.328;10.096;2023-12-04T05:01:49;-8.80;99.90
45549;DHT22;31270;48.328;10.096;2023-12-04T05:04:14;-8.70;99.90
45549;DHT22;31270;48.328;10.096;2023-12-04T05:06:40;-8.60;99.90
45549;DHT22;31270;48.328;10.096;2023-12-04T05:09:06;-8.60;99.90
45549;DHT22;31270;48.328;10.096;2023-12-04T05:11:32;-8.60;99.90
45549;DHT22;31270;48.328;10.096;2023-12-04T05:13:57;-8.60;99.90
45549;DHT22;31270;48.328;10.096;2023-12-04T05:16:23;-8.60;99.90
45549;DHT22;31270;48.328;10.096;2023-12-04T05:18:49;-8.60;99.90
45549;DHT22;31270;48.328;10.096;2023-12-04T05:21:14;-8.50;99.90
45549;DHT22;31270;48.328;10.096;2023-12-04T05:23:40;-8.50;99.90
45549;DHT22;31270;48.328;10.096;2023-12-04T05:26:06;-8.50;99.90
45549;DHT22;31270;48.328;10.096;2023-12-04T05:28:33;-8.50;99.90
45549;DHT22;31270;48.328;10.096;2023-12-04T05:30:59;-8.40;99.90
45549;DHT22;31270;48.328;10.096;2023-12-04T05:33:25;-8.50;99.90
45549;DHT22;31270;48.328;10.096;2023-12-04T05:35:51;-8.50;99.90
45549;DHT22;31270;48.328;10.096;2023-12-04T05:38:17;-8.50;99.90
45549;DHT22;31270;48.328;10.096;2023-12-04T05:40:43;-8.50;99.90
45549;DHT22;31270;48.328;10.096;2023-12-04T05:43:09;-8.60;99.90
45549;DHT22;31270;48.328;10.096;2023-12-04T05:45:34;-8.50;99.90
45549;DHT22;31270;48.328;10.096;2023-12-04T05:48:00;-8.50;99.90
45549;DHT22;31270;48.328;10.096;2023-12-04T05:50:25;-8.50;99.90
45549;DHT22;31270;48.328;10.096;2023-12-04T05:52:51;-8.40;99.90
45549;DHT22;31270;48.328;10.096;2023-12-04T05:55:17;-8.50;99.90
45549;DHT22;31270;48.328;10.096;2023-12-04T05:57:44;-8.50;99.90
45549;DHT22;31270;48.328;10.096;2023-12-04T06:00:09;-8.50;99.90
45549;DHT22;31270;48.328;10.096;2023-12-04T06:02:39;-8.40;99.90
45549;DHT22;31270;48.328;10.096;2023-12-04T06:05:06;-8.50;99.90
45549;DHT22;31270;48.328;10.096;2023-12-04T06:07:31;-8.50;99.90
45549;DHT22;31270;48.328;10.096;2023-12-04T06:09:58;-8.70;99.90
45549;DHT22;31270;48.328;10.096;2023-12-04T06:12:24;-8.70;99.90
45549;DHT22;31270;48.328;10.096;2023-12-04T06:14:50;-8.70;99.90
45549;DHT22;31270;48.328;10.096;2023-12-04T06:17:16;-8.70;99.90
45549;DHT22;31270;48.328;10.096;2023-12-04T06:19:45;-8.60;99.90
45549;DHT22;31270;48.328;10.096;2023-12-04T06:22:11;-8.60;99.90
45549;DHT22;31270;48.328;10.096;2023-12-04T06:24:37;-8.50;99.90
45549;DHT22;31270;48.328;10.096;2023-12-04T06:27:03;-8.50;99.90
45549;DHT22;31270;48.328;10.096;2023-12-04T06:29:30;-8.50;99.90
45549;DHT22;31270;48.328;10.096;2023-12-04T06:31:56;-8.60;99.90
45549;DHT22;31270;48.328;10.096;2023-12-04T06:34:22;-8.60;99.90
45549;DHT22;31270;48.328;10.096;2023-12-04T06:36:48;-8.60;99.90
45549;DHT22;31270;48.328;10.096;2023-12-04T06:39:16;-8.60;99.90
45549;DHT22;31270;48.328;10.096;2023-12-04T06:41:43;-8.60;99.90
45549;DHT22;31270;48.328;10.096;2023-12-04T06:44:10;-8.80;99.90
45549;DHT22;31270;48.328;10.096;2023-12-04T06:46:39;-8.90;99.90
45549;DHT22;31270;48.328;10.096;2023-12-04T06:49:06;-8.90;99.90
45549;DHT22;31270;48.328;10.096;2023-12-04T06:51:33;-8.90;99.90
45549;DHT22;31270;48.328;10.096;2023-12-04T06:53:58;-8.80;99.90
45549;DHT22;31270;48.328;10.096;2023-12-04T06:56:24;-8.90;99.90
45549;DHT22;31270;48.328;10.096;2023-12-04T06:58:49;-8.90;99.90
45549;DHT22;31270;48.328;10.096;2023-12-04T07:01:15;-8.90;99.90
45549;DHT22;31270;48.328;10.096;2023-12-04T07:03:41;-8.90;99.90
45549;DHT22;31270;48.328;10.096;2023-12-04T07:06:06;-8.90;99.90
45549;DHT22;31270;48.328;10.096;2023-12-04T07:08:32;-8.90;99.90
45549;DHT22;31270;48.328;10.096;2023-12-04T07:10:58;-8.80;99.90
45549;DHT22;31270;48.328;10.096;2023-12-04T07:13:23;-8.90;99.90
45549;DHT22;31270;48.328;10.096;2023-12-04T07:15:50;-8.80;99.90
45549;DHT22;31270;48.328;10.096;2023-12-04T07:18:15;-8.80;99.90
45549;DHT22;31270;48.328;10.096;2023-12-04T07:20:41;-8.80;99.90
45549;DHT22;31270;48.328;10.096;2023-12-04T07:23:06;-8.80;99.90
45549;DHT22;31270;48.328;10.096;2023-12-04T07:25:33;-8.90;99.90
45549;DHT22;31270;48.328;10.096;2023-12-04T07:27:58;-8.90;99.90
45549;DHT22;31270;48.328;10.096;2023-12-04T07:30:28;-8.80;99.90
45549;DHT22;31270;48.328;10.096;2023-12-04T07:32:54;-8.80;99.90
45549;DHT22;31270;48.328;10.096;2023-12-04T07:35:19;-8.80;99.90
45549;DHT22;31270;48.328;10.096;2023-12-04T07:37:45;-8.80;99.90
45549;DHT22;31270;48.328;10.096;2023-12-04T07:40:11;-8.80;99.90
45549;DHT22;31270;48.328;10.096;2023-12-04T07:42:37;-8.80;99.90
45549;DHT22;31270;48.328;10.096;2023-12-04T07:45:03;-8.80;99.90
45549;DHT22;31270;48.328;10.096;2023-12-04T07:47:29;-8.70;99.90
45549;DHT22;31270;48.328;10.096;2023-12-04T07:49:54;-8.70;99.90
45549;DHT22;31270;48.328;10.096;2023-12-04T07:52:20;-8.60;99.90
45549;DHT22;31270;48.328;10.096;2023-12-04T07:54:45;-8.40;99.90
45549;DHT22;31270;48.328;10.096;2023-12-04T07:57:11;-8.40;99.90
45549;DHT22;31270;48.328;10.096;2023-12-04T07:59:37;-8.40;99.90
45549;DHT22;31270;48.328;10.096;2023-12-04T08:02:03;-8.40;99.90
45549;DHT22;31270;48.328;10.096;2023-12-04T08:04:28;-8.40;99.90
45549;DHT22;31270;48.328;10.096;2023-12-04T08:06:54;-8.40;99.90
45549;DHT22;31270;48.328;10.096;2023-12-04T08:09:20;-8.30;99.90
45549;DHT22;31270;48.328;10.096;2023-12-04T08:11:46;-8.20;99.90
45549;DHT22;31270;48.328;10.096;2023-12-04T08:14:12;-8.20;99.90
45549;DHT22;31270;48.328;10.096;2023-12-04T08:16:37;-8.10;99.90
45549;DHT22;31270;48.328;10.096;2023-12-04T08:19:03;-8.20;99.90
45549;DHT22;31270;48.328;10.096;2023-12-04T08:21:29;-8.20;99.90
45549;DHT22;31270;48.328;10.096;2023-12-04T08:23:54;-8.20;99.90
45549;DHT22;31270;48.328;10.096;2023-12-04T08:26:22;-8.40;99.90
45549;DHT22;31270;48.328;10.096;2023-12-04T08:28:48;-8.60;99.90
45549;DHT22;31270;48.328;10.096;2023-12-04T08:31:14;-8.60;99.90
45549;DHT22;31270;48.328;10.096;2023-12-04T08:33:39;-8.60;99.90
45549;DHT22;31270;48.328;10.096;2023-12-04T08:36:06;-8.70;99.90
45549;DHT22;31270;48.328;10.096;2023-12-04T08:38:31;-8.70;99.90
45549;DHT22;31270;48.328;10.096;2023-12-04T08:40:57;-8.60;99.90
45549;DHT22;31270;48.328;10.096;2023-12-04T08:43:23;-8.60;99.90
45549;DHT22;31270;48.328;10.096;2023-12-04T08:45:49;-8.50;99.90
45549;DHT22;31270;48.328;10.096;2023-12-04T08:48:15;-8.40;99.90
45549;DHT22;31270;48.328;10.096;2023-12-04T08:50:40;-8.40;99.90
45549;DHT22;31270;48.328;10.096;2023-12-04T08:53:06;-8.30;99.90
45549;DHT22;31270;48.328;10.096;2023-12-04T08:55:31;-8.10;99.90
45549;DHT22;31270;48.328;10.096;2023-12-04T08:57:57;-8.00;99.90
45549;DHT22;31270;48.328;10.096;2023-12-04T09:00:23;-7.90;99.90
45549;DHT22;31270;48.328;10.096;2023-12-04T09:02:48;-7.80;99.90
45549;DHT22;31270;48.328;10.096;2023-12-04T09:05:14;-7.70;99.90
45549;DHT22;31270;48.328;10.096;2023-12-04T09:07:40;-7.60;99.90
45549;DHT22;31270;48.328;10.096;2023-12-04T09:10:06;-7.50;99.90
45549;DHT22;31270;48.328;10.096;2023-12-04T09:12:32;-7.40;99.90
45549;DHT22;31270;48.328;10.096;2023-12-04T09:15:00;-7.40;99.90
45549;DHT22;31270;48.328;10.096;2023-12-04T09:17:27;-7.40;99.90
45549;DHT22;31270;48.328;10.096;2023-12-04T09:19:53;-7.40;99.90
45549;DHT22;31270;48.328;10.096;2023-12-04T09:22:18;-7.20;99.90
45549;DHT22;31270;48.328;10.096;2023-12-04T09:24:44;-7.20;99.90
45549;DHT22;31270;48.328;10.096;2023-12-04T09:27:10;-7.20;99.90
45549;DHT22;31270;48.328;10.096;2023-12-04T09:29:35;-7.10;99.90
45549;DHT22;31270;48.328;10.096;2023-12-04T09:32:01;-7.10;99.90
45549;DHT22;31270;48.328;10.096;2023-12-04T09:34:27;-7.10;99.90
45549;DHT22;31270;48.328;10.096;2023-12-04T09:36:52;-7.00;99.90
45549;DHT22;31270;48.328;10.096;2023-12-04T09:39:19;-6.90;99.90
45549;DHT22;31270;48.328;10.096;2023-12-04T09:41:45;-7.00;99.90
45549;DHT22;31270;48.328;10.096;2023-12-04T09:44:13;-6.90;99.90
45549;DHT22;31270;48.328;10.096;2023-12-04T09:46:39;-6.70;99.90
45549;DHT22;31270;48.328;10.096;2023-12-04T09:49:05;-6.80;99.90
45549;DHT22;31270;48.328;10.096;2023-12-04T09:51:31;-6.70;99.90
45549;DHT22;31270;48.328;10.096;2023-12-04T09:53:57;-6.50;99.90
45549;DHT22;31270;48.328;10.096;2023-12-04T09:56:26;-6.40;99.90
45549;DHT22;31270;48.328;10.096;2023-12-04T09:58:58;-6.30;99.90
45549;DHT22;31270;48.328;10.096;2023-12-04T10:01:27;-6.20;99.90
45549;DHT22;31270;48.328;10.096;2023-12-04T10:03:54;-6.10;99.90
45549;DHT22;31270;48.328;10.096;2023-12-04T10:06:25;-6.10;99.90
45549;DHT22;31270;48.328;10.096;2023-12-04T10:08:51;-6.00;99.90
45549;DHT22;31270;48.328;10.096;2023-12-04T10:11:17;-5.90;99.90
45549;DHT22;31270;48.328;10.096;2023-12-04T10:13:42;-5.70;99.90
45549;DHT22;31270;48.328;10.096;2023-12-04T10:16:08;-5.70;99.90
45549;DHT22;31270;48.328;10.096;2023-12-04T10:18:34;-5.60;99.90
45549;DHT22;31270;48.328;10.096;2023-12-04T10:21:00;-5.60;99.90
45549;DHT22;31270;48.328;10.096;2023-12-04T10:23:42;-5.40;99.90
45549;DHT22;31270;48.328;10.096;2023-12-04T10:26:08;-5.40;99.90
45549;DHT22;31270;48.328;10.096;2023-12-04T10:28:34;-5.40;99.90
45549;DHT22;31270;48.328;10.096;2023-12-04T10:31:00;-5.40;99.90
45549;DHT22;31270;48.328;10.096;2023-12-04T10:33:25;-5.40;99.90
45549;DHT22;31270;48.328;10.096;2023-12-04T10:35:52;-5.30;99.90
45549;DHT22;31270;48.328;10.096;2023-12-04T10:38:18;-5.20;99.90
45549;DHT22;31270;48.328;10.096;2023-12-04T10:40:45;-5.20;99.90
45549;DHT22;31270;48.328;10.096;2023-12-04T10:43:23;-5.50;99.90
45549;DHT22;31270;48.328;10.096;2023-12-04T10:45:53;-5.60;99.90
45549;DHT22;31270;48.328;10.096;2023-12-04T10:48:20;-5.60;99.90
45549;DHT22;31270;48.328;10.096;2023-12-04T10:50:47;-5.60;99.90
45549;DHT22;31270;48.328;10.096;2023-12-04T10:53:15;-5.50;99.90
45549;DHT22;31270;48.328;10.096;2023-12-04T10:55:42;-5.30;99.90
45549;DHT22;31270;48.328;10.096;2023-12-04T10:58:12;-5.30;99.90
45549;DHT22;31270;48.328;10.096;2023-12-04T11:00:49;-5.20;99.90
45549;DHT22;31270;48.328;10.096;2023-12-04T11:03:21;-5.10;99.90
45549;DHT22;31270;48.328;10.096;2023-12-04T11:05:56;-5.10;99.90
45549;DHT22;31270;48.328;10.096;2023-12-04T11:08:25;-4.90;99.90
45549;DHT22;31270;48.328;10.096;2023-12-04T11:11:02;-4.90;99.90
45549;DHT22;31270;48.328;10.096;2023-12-04T11:13:41;-4.90;99.90
45549;DHT22;31270;48.328;10.096;2023-12-04T11:16:18;-4.80;99.90
45549;DHT22;31270;48.328;10.096;2023-12-04T11:18:56;-4.70;99.90
45549;DHT22;31270;48.328;10.096;2023-12-04T11:21:26;-4.60;99.90
45549;DHT22;31270;48.328;10.096;2023-12-04T11:23:54;-4.60;99.90
45549;DHT22;31270;48.328;10.096;2023-12-04T11:26:20;-4.50;99.90
45549;DHT22;31270;48.328;10.096;2023-12-04T11:28:48;-4.50;99.90
45549;DHT22;31270;48.328;10.096;2023-12-04T11:31:23;-4.50;99.90
45549;DHT22;31270;48.328;10.096;2023-12-04T11:33:49;-4.50;99.90
45549;DHT22;31270;48.328;10.096;2023-12-04T11:36:15;-4.50;99.90
45549;DHT22;31270;48.328;10.096;2023-12-04T11:38:46;-4.40;99.90
45549;DHT22;31270;48.328;10.096;2023-12-04T11:41:19;-4.50;99.90
45549;DHT22;31270;48.328;10.096;2023-12-04T11:43:47;-4.20;99.90
45549;DHT22;31270;48.328;10.096;2023-12-04T11:46:14;-4.20;99.90
45549;DHT22;31270;48.328;10.096;2023-12-04T11:48:47;-4.10;99.90
45549;DHT22;31270;48.328;10.096;2023-12-04T11:52:00;-3.90;99.90
45549;DHT22;31270;48.328;10.096;2023-12-04T11:54:02;-3.80;99.90
45549;DHT22;31270;48.328;10.096;2023-12-04T11:56:34;-3.70;99.90
45549;DHT22;31270;48.328;10.096;2023-12-04T11:59:04;-3.70;99.90
45549;DHT22;31270;48.328;10.096;2023-12-04T12:01:36;-4.00;99.90
45549;DHT22;31270;48.328;10.096;2023-12-04T12:04:06;-4.00;99.90
45549;DHT22;31270;48.328;10.096;2023-12-04T12:06:32;-3.90;99.90
45549;DHT22;31270;48.328;10.096;2023-12-04T12:08:57;-3.90;99.90
45549;DHT22;31270;48.328;10.096;2023-12-04T12:11:24;-3.80;99.90
45549;DHT22;31270;48.328;10.096;2023-12-04T12:13:53;-3.90;99.90
45549;DHT22;31270;48.328;10.096;2023-12-04T12:16:19;-4.10;99.90
45549;DHT22;31270;48.328;10.096;2023-12-04T12:18:44;-4.10;99.90
45549;DHT22;31270;48.328;10.096;2023-12-04T12:21:11;-4.30;99.90
45549;DHT22;31270;48.328;10.096;2023-12-04T12:23:37;-4.20;99.90
45549;DHT22;31270;48.328;10.096;2023-12-04T12:26:03;-4.10;99.90
45549;DHT22;31270;48.328;10.096;2023-12-04T12:28:29;-4.00;99.90
45549;DHT22;31270;48.328;10.096;2023-12-04T12:30:55;-3.90;99.90
45549;DHT22;31270;48.328;10.096;2023-12-04T12:33:21;-3.90;99.90
45549;DHT22;31270;48.328;10.096;2023-12-04T12:35:48;-3.90;99.90
45549;DHT22;31270;48.328;10.096;2023-12-04T12:38:14;-3.80;99.90
45549;DHT22;31270;48.328;10.096;2023-12-04T12:40:41;-3.80;99.90
45549;DHT22;31270;48.328;10.096;2023-12-04T12:43:08;-3.90;99.90
45549;DHT22;31270;48.328;10.096;2023-12-04T12:45:42;-4.20;99.90
45549;DHT22;31270;48.328;10.096;2023-12-04T12:48:13;-4.20;99.90
45549;DHT22;31270;48.328;10.096;2023-12-04T12:50:39;-4.10;99.90
45549;DHT22;31270;48.328;10.096;2023-12-04T12:53:05;-3.80;99.90
45549;DHT22;31270;48.328;10.096;2023-12-04T12:55:30;-3.40;99.90
45549;DHT22;31270;48.328;10.096;2023-12-04T12:57:56;-3.30;99.90
45549;DHT22;31270;48.328;10.096;2023-12-04T13:00:23;-3.20;99.90
45549;DHT22;31270;48.328;10.096;2023-12-04T13:02:52;-3.10;99.90
45549;DHT22;31270;48.328;10.096;2023-12-04T13:05:17;-3.10;99.90
45549;DHT22;31270;48.328;10.096;2023-12-04T13:07:45;-3.00;99.90
45549;DHT22;31270;48.328;10.096;2023-12-04T13:10:11;-3.10;99.90
45549;DHT22;31270;48.328;10.096;2023-12-04T13:12:36;-3.10;99.90
45549;DHT22;31270;48.328;10.096;2023-12-04T13:15:02;-3.00;99.90
45549;DHT22;31270;48.328;10.096;2023-12-04T13:17:29;-3.00;99.90
45549;DHT22;31270;48.328;10.096;2023-12-04T13:19:54;-3.10;99.90
45549;DHT22;31270;48.328;10.096;2023-12-04T13:22:20;-3.20;99.90
45549;DHT22;31270;48.328;10.096;2023-12-04T13:24:45;-3.30;99.90
45549;DHT22;31270;48.328;10.096;2023-12-04T13:27:11;-3.50;99.90
45549;DHT22;31270;48.328;10.096;2023-12-04T13:29:37;-3.60;99.90
45549;DHT22;31270;48.328;10.096;2023-12-04T13:32:03;-3.70;99.90
45549;DHT22;31270;48.328;10.096;2023-12-04T13:34:29;-3.80;99.90
45549;DHT22;31270;48.328;10.096;2023-12-04T13:36:55;-3.90;99.90
45549;DHT22;31270;48.328;10.096;2023-12-04T13:39:21;-3.90;99.90
45549;DHT22;31270;48.328;10.096;2023-12-04T13:42:04;-3.90;99.90
45549;DHT22;31270;48.328;10.096;2023-12-04T13:44:48;-3.90;99.90
45549;DHT22;31270;48.328;10.096;2023-12-04T13:47:14;-4.00;99.90
45549;DHT22;31270;48.328;10.096;2023-12-04T13:49:41;-4.20;99.90
45549;DHT22;31270;48.328;10.096;2023-12-04T13:52:07;-4.20;99.90
45549;DHT22;31270;48.328;10.096;2023-12-04T13:54:33;-4.10;99.90
45549;DHT22;31270;48.328;10.096;2023-12-04T13:57:14;-4.00;99.90
45549;DHT22;31270;48.328;10.096;2023-12-04T13:59:59;-3.90;99.90
45549;DHT22;31270;48.328;10.096;2023-12-04T14:02:26;-3.90;99.90
45549;DHT22;31270;48.328;10.096;2023-12-04T14:04:52;-3.80;99.90
45549;DHT22;31270;48.328;10.096;2023-12-04T14:07:18;-3.70;99.90
45549;DHT22;31270;48.328;10.096;2023-12-04T14:09:44;-3.70;99.90
45549;DHT22;31270;48.328;10.096;2023-12-04T14:12:12;-3.80;99.90
45549;DHT22;31270;48.328;10.096;2023-12-04T14:14:39;-3.70;99.90
45549;DHT22;31270;48.328;10.096;2023-12-04T14:17:05;-3.70;99.90
45549;DHT22;31270;48.328;10.096;2023-12-04T14:19:32;-3.70;99.90
45549;DHT22;31270;48.328;10.096;2023-12-04T14:21:58;-3.70;99.90
45549;DHT22;31270;48.328;10.096;2023-12-04T14:24:24;-3.70;99.90
45549;DHT22;31270;48.328;10.096;2023-12-04T14:26:50;-3.80;99.90
45549;DHT22;31270;48.328;10.096;2023-12-04T14:29:16;-3.90;99.90
45549;DHT22;31270;48.328;10.096;2023-12-04T14:31:42;-3.90;99.90
45549;DHT22;31270;48.328;10.096;2023-12-04T14:34:07;-3.90;99.90
45549;DHT22;31270;48.328;10.096;2023-12-04T14:36:33;-3.90;99.90
45549;DHT22;31270;48.328;10.096;2023-12-04T14:38:59;-3.90;99.90
45549;DHT22;31270;48.328;10.096;2023-12-04T14:41:25;-3.90;99.90
45549;DHT22;31270;48.328;10.096;2023-12-04T14:43:51;-3.80;99.90
45549;DHT22;31270;48.328;10.096;2023-12-04T14:46:16;-3.80;99.90
45549;DHT22;31270;48.328;10.096;2023-12-04T14:48:42;-3.90;99.90
45549;DHT22;31270;48.328;10.096;2023-12-04T14:51:08;-4.00;99.90
45549;DHT22;31270;48.328;10.096;2023-12-04T14:53:40;-4.00;99.90
45549;DHT22;31270;48.328;10.096;2023-12-04T14:56:11;-4.00;99.90
45549;DHT22;31270;48.328;10.096;2023-12-04T14:58:56;-4.10;99.90
45549;DHT22;31270;48.328;10.096;2023-12-04T15:01:31;-4.30;99.90
45549;DHT22;31270;48.328;10.096;2023-12-04T15:04:28;-4.30;99.90
45549;DHT22;31270;48.328;10.096;2023-12-04T15:07:13;-4.30;99.90
45549;DHT22;31270;48.328;10.096;2023-12-04T15:09:58;-4.30;99.90
45549;DHT22;31270;48.328;10.096;2023-12-04T15:12:33;-4.30;99.90